sensor_id;sensor_type;location;lat;lon;timestamp;pressure;altitude;pressure_sealevel;temperature;humidity
66887;BME280;67239;51.680;5.976;2023-07-20T00:01:53;101233.28;;;17.37;80.65
66887;BME280;67239;51.680;5.976;2023-07-20T00:04:20;101234.31;;;17.34;81.17
66887;BME280;67239;51.680;5.976;2023-07-20T00:06:47;101235.31;;;17.32;80.96
66887;BME280;67239;51.680;5.976;2023-07-20T00:09:14;101234.47;;;17.31;81.08
66887;BME280;67239;51.680;5.976;2023-07-20T00:11:48;101236.25;;;17.31;81.34
66887;BME280;67239;51.680;5.976;2023-07-20T00:14:18;101239.84;;;17.30;81.53
66887;BME280;67239;51.680;5.976;2023-07-20T00:16:46;101243.31;;;17.32;81.90
66887;BME280;67239;51.680;5.976;2023-07-20T00:19:13;101240.59;;;17.33;81.69
66887;BME280;67239;51.680;5.976;2023-07-20T00:21:40;101240.41;;;17.36;81.79
66887;BME280;67239;51.680;5.976;2023-07-20T00:24:09;101229.84;;;17.35;81.46
66887;BME280;67239;51.680;5.976;2023-07-20T00:26:36;101236.00;;;17.35;81.87
66887;BME280;67239;51.680;5.976;2023-07-20T00:29:03;101230.00;;;17.32;81.97
66887;BME280;67239;51.680;5.976;2023-07-20T00:31:31;101239.00;;;17.29;82.05
66887;BME280;67239;51.680;5.976;2023-07-20T00:33:58;101225.00;;;17.26;82.84
66887;BME280;67239;51.680;5.976;2023-07-20T00:36:25;101229.38;;;17.27;83.05
66887;BME280;67239;51.680;5.976;2023-07-20T00:38:52;101237.38;;;17.27;83.66
66887;BME280;67239;51.680;5.976;2023-07-20T00:41:19;101239.59;;;17.18;84.52
66887;BME280;67239;51.680;5.976;2023-07-20T00:43:46;101246.56;;;17.03;87.12
66887;BME280;67239;51.680;5.976;2023-07-20T00:46:13;101246.13;;;16.76;87.67
66887;BME280;67239;51.680;5.976;2023-07-20T00:48:42;101246.31;;;16.54;89.68
66887;BME280;67239;51.680;5.976;2023-07-20T00:51:10;101242.75;;;16.36;91.31
66887;BME280;67239;51.680;5.976;2023-07-20T00:53:38;101238.25;;;16.19;91.43
66887;BME280;67239;51.680;5.976;2023-07-20T00:56:05;101237.75;;;16.10;92.04
66887;BME280;67239;51.680;5.976;2023-07-20T00:58:35;101233.50;;;16.06;93.55
66887;BME280;67239;51.680;5.976;2023-07-20T01:01:03;101233.84;;;15.98;93.75
66887;BME280;67239;51.680;5.976;2023-07-20T01:03:30;101230.47;;;15.95;94.07
66887;BME280;67239;51.680;5.976;2023-07-20T01:08:51;101240.31;;;15.93;95.09
66887;BME280;67239;51.680;5.976;2023-07-20T01:12:08;101239.47;;;15.92;95.61
66887;BME280;67239;51.680;5.976;2023-07-20T01:14:51;101241.28;;;15.92;96.12
66887;BME280;67239;51.680;5.976;2023-07-20T01:17:18;101242.22;;;15.91;96.36
66887;BME280;67239;51.680;5.976;2023-07-20T01:19:45;101246.72;;;15.89;97.00
66887;BME280;67239;51.680;5.976;2023-07-20T01:25:45;101243.53;;;15.80;97.74
66887;BME280;67239;51.680;5.976;2023-07-20T01:31:41;101242.53;;;15.83;99.51
66887;BME280;67239;51.680;5.976;2023-07-20T01:34:12;101246.25;;;15.79;99.28
66887;BME280;67239;51.680;5.976;2023-07-20T01:36:45;101233.97;;;15.76;99.57
66887;BME280;67239;51.680;5.976;2023-07-20T01:39:15;101242.84;;;15.75;99.90
66887;BME280;67239;51.680;5.976;2023-07-20T01:41:44;101245.47;;;15.77;100.00
66887;BME280;67239;51.680;5.976;2023-07-20T01:44:13;101247.13;;;15.79;100.00
66887;BME280;67239;51.680;5.976;2023-07-20T01:46:40;101236.31;;;15.82;100.00
66887;BME280;67239;51.680;5.976;2023-07-20T01:49:07;101240.47;;;15.90;100.00
66887;BME280;67239;51.680;5.976;2023-07-20T01:51:34;101239.59;;;15.89;100.00
66887;BME280;67239;51.680;5.976;2023-07-20T01:54:01;101238.75;;;15.89;100.00
66887;BME280;67239;51.680;5.976;2023-07-20T01:56:28;101239.69;;;15.88;100.00
66887;BME280;67239;51.680;5.976;2023-07-20T01:58:55;101237.03;;;15.88;100.00
66887;BME280;67239;51.680;5.976;2023-07-20T02:01:23;101244.28;;;15.82;100.00
66887;BME280;67239;51.680;5.976;2023-07-20T02:03:50;101247.03;;;15.81;100.00
66887;BME280;67239;51.680;5.976;2023-07-20T02:06:17;101247.16;;;15.78;100.00
66887;BME280;67239;51.680;5.976;2023-07-20T02:08:44;101247.38;;;15.73;100.00
66887;BME280;67239;51.680;5.976;2023-07-20T02:11:11;101251.03;;;15.71;100.00
66887;BME280;67239;51.680;5.976;2023-07-20T02:13:38;101256.44;;;15.69;100.00
66887;BME280;67239;51.680;5.976;2023-07-20T02:16:05;101258.38;;;15.65;100.00
66887;BME280;67239;51.680;5.976;2023-07-20T02:18:33;101253.91;;;15.66;100.00
66887;BME280;67239;51.680;5.976;2023-07-20T02:21:00;101254.72;;;15.68;100.00
66887;BME280;67239;51.680;5.976;2023-07-20T02:23:27;101256.50;;;15.67;100.00
66887;BME280;67239;51.680;5.976;2023-07-20T02:25:54;101245.84;;;15.67;100.00
66887;BME280;67239;51.680;5.976;2023-07-20T02:28:22;101255.66;;;15.67;100.00
66887;BME280;67239;51.680;5.976;2023-07-20T02:30:50;101254.84;;;15.65;100.00
66887;BME280;67239;51.680;5.976;2023-07-20T02:33:17;101263.81;;;15.62;100.00
66887;BME280;67239;51.680;5.976;2023-07-20T02:35:44;101258.59;;;15.61;100.00
66887;BME280;67239;51.680;5.976;2023-07-20T02:38:11;101255.94;;;15.61;100.00
66887;BME280;67239;51.680;5.976;2023-07-20T02:40:38;101255.13;;;15.59;100.00
66887;BME280;67239;51.680;5.976;2023-07-20T02:43:05;101262.22;;;15.58;100.00
66887;BME280;67239;51.680;5.976;2023-07-20T02:45:33;101258.72;;;15.58;100.00
66887;BME280;67239;51.680;5.976;2023-07-20T02:48:00;101260.56;;;15.56;100.00
66887;BME280;67239;51.680;5.976;2023-07-20T02:50:28;101262.59;;;15.50;100.00
66887;BME280;67239;51.680;5.976;2023-07-20T02:52:55;101267.16;;;15.47;100.00
66887;BME280;67239;51.680;5.976;2023-07-20T02:55:22;101272.41;;;15.48;100.00
66887;BME280;67239;51.680;5.976;2023-07-20T02:57:49;101274.25;;;15.46;100.00
66887;BME280;67239;51.680;5.976;2023-07-20T03:00:17;101274.38;;;15.43;100.00
66887;BME280;67239;51.680;5.976;2023-07-20T03:02:46;101274.75;;;15.35;100.00
66887;BME280;67239;51.680;5.976;2023-07-20T03:05:19;101278.47;;;15.31;100.00
66887;BME280;67239;51.680;5.976;2023-07-20T03:07:47;101277.66;;;15.29;100.00
66887;BME280;67239;51.680;5.976;2023-07-20T03:10:14;101279.50;;;15.27;100.00
66887;BME280;67239;51.680;5.976;2023-07-20T03:12:41;101287.47;;;15.27;100.00
66887;BME280;67239;51.680;5.976;2023-07-20T03:15:09;101286.81;;;15.22;100.00
66887;BME280;67239;51.680;5.976;2023-07-20T03:17:37;101284.44;;;15.16;100.00
66887;BME280;67239;51.680;5.976;2023-07-20T03:20:05;101289.88;;;15.13;100.00
66887;BME280;67239;51.680;5.976;2023-07-20T03:22:36;101295.38;;;15.08;100.00
66887;BME280;67239;51.680;5.976;2023-07-20T03:25:04;101301.53;;;15.09;100.00
66887;BME280;67239;51.680;5.976;2023-07-20T03:27:31;101308.47;;;15.13;100.00
66887;BME280;67239;51.680;5.976;2023-07-20T03:30:00;101300.41;;;15.14;100.00
66887;BME280;67239;51.680;5.976;2023-07-20T03:32:28;101308.34;;;15.16;100.00
66887;BME280;67239;51.680;5.976;2023-07-20T03:34:55;101310.00;;;15.18;100.00
66887;BME280;67239;51.680;5.976;2023-07-20T03:37:22;101316.13;;;15.20;100.00
66887;BME280;67239;51.680;5.976;2023-07-20T03:39:49;101310.84;;;15.19;100.00
66887;BME280;67239;51.680;5.976;2023-07-20T03:42:16;101310.13;;;15.15;100.00
66887;BME280;67239;51.680;5.976;2023-07-20T03:44:43;101312.84;;;15.14;100.00
66887;BME280;67239;51.680;5.976;2023-07-20T03:47:10;101313.88;;;15.10;100.00
66887;BME280;67239;51.680;5.976;2023-07-20T03:49:38;101324.63;;;15.06;100.00
66887;BME280;67239;51.680;5.976;2023-07-20T03:52:06;101313.53;;;14.97;100.00
66887;BME280;67239;51.680;5.976;2023-07-20T03:54:33;101311.94;;;14.93;100.00
66887;BME280;67239;51.680;5.976;2023-07-20T03:57:00;101321.69;;;14.92;100.00
66887;BME280;67239;51.680;5.976;2023-07-20T03:59:27;101327.94;;;14.91;100.00
66887;BME280;67239;51.680;5.976;2023-07-20T04:01:54;101323.63;;;14.88;100.00
66887;BME280;67239;51.680;5.976;2023-07-20T04:04:22;101332.50;;;14.87;100.00
66887;BME280;67239;51.680;5.976;2023-07-20T04:06:49;101330.88;;;14.83;100.00
66887;BME280;67239;51.680;5.976;2023-07-20T04:09:16;101324.78;;;14.81;100.00
66887;BME280;67239;51.680;5.976;2023-07-20T04:11:43;101337.13;;;14.82;100.00
66887;BME280;67239;51.680;5.976;2023-07-20T04:14:10;101333.69;;;14.80;100.00
66887;BME280;67239;51.680;5.976;2023-07-20T04:16:37;101330.88;;;14.83;100.00
66887;BME280;67239;51.680;5.976;2023-07-20T04:19:04;101329.03;;;14.85;100.00
66887;BME280;67239;51.680;5.976;2023-07-20T04:21:31;101321.09;;;14.85;100.00
66887;BME280;67239;51.680;5.976;2023-07-20T04:23:59;101324.59;;;14.86;100.00
66887;BME280;67239;51.680;5.976;2023-07-20T04:26:26;101329.91;;;14.86;100.00
66887;BME280;67239;51.680;5.976;2023-07-20T04:28:53;101322.75;;;14.88;100.00
66887;BME280;67239;51.680;5.976;2023-07-20T04:31:32;101331.44;;;14.91;100.00
66887;BME280;67239;51.680;5.976;2023-07-20T04:34:00;101335.72;;;14.96;100.00
66887;BME280;67239;51.680;5.976;2023-07-20T04:36:28;101340.75;;;15.02;100.00
66887;BME280;67239;51.680;5.976;2023-07-20T04:38:56;101332.59;;;15.06;100.00
66887;BME280;67239;51.680;5.976;2023-07-20T04:41:23;101337.59;;;15.14;100.00
66887;BME280;67239;51.680;5.976;2023-07-20T04:43:54;101339.94;;;15.22;100.00
66887;BME280;67239;51.680;5.976;2023-07-20T04:46:27;101331.03;;;15.23;100.00
66887;BME280;67239;51.680;5.976;2023-07-20T04:48:55;101334.56;;;15.24;100.00
66887;BME280;67239;51.680;5.976;2023-07-20T04:51:23;101331.78;;;15.27;100.00
66887;BME280;67239;51.680;5.976;2023-07-20T04:53:53;101336.31;;;15.45;100.00
66887;BME280;67239;51.680;5.976;2023-07-20T04:56:21;101336.34;;;16.06;100.00
66887;BME280;67239;51.680;5.976;2023-07-20T04:58:51;101346.13;;;16.43;99.81
66887;BME280;67239;51.680;5.976;2023-07-20T05:01:18;101345.41;;;16.40;98.88
66887;BME280;67239;51.680;5.976;2023-07-20T05:03:45;101337.75;;;16.53;97.28
66887;BME280;67239;51.680;5.976;2023-07-20T05:06:14;101335.81;;;16.93;95.84
66887;BME280;67239;51.680;5.976;2023-07-20T05:08:41;101342.00;;;16.74;95.72
66887;BME280;67239;51.680;5.976;2023-07-20T05:11:08;101339.31;;;16.57;96.56
66887;BME280;67239;51.680;5.976;2023-07-20T05:13:36;101338.69;;;16.52;96.45
66887;BME280;67239;51.680;5.976;2023-07-20T05:16:03;101338.50;;;16.55;96.45
66887;BME280;67239;51.680;5.976;2023-07-20T05:18:32;101342.59;;;16.81;96.28
66887;BME280;67239;51.680;5.976;2023-07-20T05:20:59;101347.78;;;17.03;96.35
66887;BME280;67239;51.680;5.976;2023-07-20T05:23:27;101345.34;;;17.34;95.99
66887;BME280;67239;51.680;5.976;2023-07-20T05:25:58;101350.34;;;18.74;90.41
66887;BME280;67239;51.680;5.976;2023-07-20T05:28:26;101345.31;;;20.06;83.04
66887;BME280;67239;51.680;5.976;2023-07-20T05:30:55;101341.94;;;19.74;84.47
66887;BME280;67239;51.680;5.976;2023-07-20T05:33:22;101353.13;;;19.05;85.67
66887;BME280;67239;51.680;5.976;2023-07-20T05:35:49;101354.56;;;19.11;85.91
66887;BME280;67239;51.680;5.976;2023-07-20T05:38:17;101358.56;;;18.55;87.81
66887;BME280;67239;51.680;5.976;2023-07-20T05:40:44;101356.69;;;18.24;88.06
66887;BME280;67239;51.680;5.976;2023-07-20T05:43:12;101367.41;;;18.88;85.94
66887;BME280;67239;51.680;5.976;2023-07-20T05:45:44;101360.28;;;19.35;83.32
66887;BME280;67239;51.680;5.976;2023-07-20T05:48:12;101368.53;;;19.46;81.34
66887;BME280;67239;51.680;5.976;2023-07-20T05:50:43;101373.72;;;19.03;81.90
66887;BME280;67239;51.680;5.976;2023-07-20T05:53:11;101367.25;;;18.75;82.14
66887;BME280;67239;51.680;5.976;2023-07-20T05:55:38;101371.09;;;18.37;83.71
66887;BME280;67239;51.680;5.976;2023-07-20T05:58:07;101368.91;;;18.12;85.17
66887;BME280;67239;51.680;5.976;2023-07-20T06:00:34;101371.88;;;18.39;83.96
66887;BME280;67239;51.680;5.976;2023-07-20T06:03:01;101372.22;;;19.44;81.23
66887;BME280;67239;51.680;5.976;2023-07-20T06:05:29;101363.63;;;20.56;78.29
66887;BME280;67239;51.680;5.976;2023-07-20T06:07:57;101356.88;;;22.61;72.49
66887;BME280;67239;51.680;5.976;2023-07-20T06:10:25;101362.16;;;24.28;67.03
66887;BME280;67239;51.680;5.976;2023-07-20T06:12:53;101368.81;;;25.45;61.98
66887;BME280;67239;51.680;5.976;2023-07-20T06:15:30;101373.84;;;26.01;56.99
66887;BME280;67239;51.680;5.976;2023-07-20T06:17:59;101366.97;;;24.91;56.84
66887;BME280;67239;51.680;5.976;2023-07-20T06:20:27;101375.91;;;23.07;63.61
66887;BME280;67239;51.680;5.976;2023-07-20T06:22:54;101378.97;;;21.76;66.04
66887;BME280;67239;51.680;5.976;2023-07-20T06:25:22;101380.53;;;20.71;69.66
66887;BME280;67239;51.680;5.976;2023-07-20T06:27:50;101385.75;;;20.01;71.92
66887;BME280;67239;51.680;5.976;2023-07-20T06:30:18;101395.84;;;19.51;72.84
66887;BME280;67239;51.680;5.976;2023-07-20T06:32:46;101401.72;;;19.12;75.23
66887;BME280;67239;51.680;5.976;2023-07-20T06:35:14;101402.97;;;18.88;76.57
66887;BME280;67239;51.680;5.976;2023-07-20T06:37:42;101407.38;;;18.73;78.42
66887;BME280;67239;51.680;5.976;2023-07-20T06:40:09;101407.03;;;18.63;78.95
66887;BME280;67239;51.680;5.976;2023-07-20T06:42:39;101392.03;;;18.45;77.80
66887;BME280;67239;51.680;5.976;2023-07-20T06:45:10;101393.09;;;18.25;78.75
66887;BME280;67239;51.680;5.976;2023-07-20T06:47:38;101394.25;;;18.03;79.22
66887;BME280;67239;51.680;5.976;2023-07-20T06:50:10;101388.38;;;17.79;79.41
66887;BME280;67239;51.680;5.976;2023-07-20T06:52:43;101395.69;;;17.58;80.10
66887;BME280;67239;51.680;5.976;2023-07-20T06:55:17;101400.00;;;17.43;82.28
66887;BME280;67239;51.680;5.976;2023-07-20T06:57:48;101389.88;;;17.32;82.86
66887;BME280;67239;51.680;5.976;2023-07-20T07:00:18;101402.00;;;17.20;83.70
66887;BME280;67239;51.680;5.976;2023-07-20T07:02:46;101399.88;;;17.09;83.66
66887;BME280;67239;51.680;5.976;2023-07-20T07:05:17;101410.09;;;16.99;83.86
66887;BME280;67239;51.680;5.976;2023-07-20T07:07:47;101411.19;;;16.95;84.18
66887;BME280;67239;51.680;5.976;2023-07-20T07:10:15;101410.53;;;17.09;85.01
66887;BME280;67239;51.680;5.976;2023-07-20T07:12:43;101397.00;;;17.31;84.59
66887;BME280;67239;51.680;5.976;2023-07-20T07:15:13;101408.00;;;17.43;85.47
66887;BME280;67239;51.680;5.976;2023-07-20T07:17:40;101407.59;;;17.50;86.33
66887;BME280;67239;51.680;5.976;2023-07-20T07:20:08;101410.75;;;17.59;86.30
66887;BME280;67239;51.680;5.976;2023-07-20T07:22:46;101407.34;;;17.55;85.60
66887;BME280;67239;51.680;5.976;2023-07-20T07:25:14;101416.38;;;17.52;85.80
66887;BME280;67239;51.680;5.976;2023-07-20T07:27:49;101409.16;;;17.54;85.54
66887;BME280;67239;51.680;5.976;2023-07-20T07:30:16;101418.81;;;17.57;86.15
66887;BME280;67239;51.680;5.976;2023-07-20T07:32:43;101416.78;;;17.80;85.58
66887;BME280;67239;51.680;5.976;2023-07-20T07:35:11;101404.94;;;18.03;83.13
66887;BME280;67239;51.680;5.976;2023-07-20T07:37:38;101416.19;;;18.26;82.75
66887;BME280;67239;51.680;5.976;2023-07-20T07:40:18;101410.09;;;18.40;80.06
66887;BME280;67239;51.680;5.976;2023-07-20T07:42:45;101414.69;;;18.54;81.31
66887;BME280;67239;51.680;5.976;2023-07-20T07:45:12;101415.13;;;18.78;80.36
66887;BME280;67239;51.680;5.976;2023-07-20T07:47:40;101413.00;;;19.01;77.45
66887;BME280;67239;51.680;5.976;2023-07-20T07:50:08;101422.16;;;18.97;76.80
66887;BME280;67239;51.680;5.976;2023-07-20T07:52:36;101417.28;;;18.87;78.11
66887;BME280;67239;51.680;5.976;2023-07-20T07:55:04;101426.69;;;18.78;78.93
66887;BME280;67239;51.680;5.976;2023-07-20T07:57:32;101424.34;;;18.72;78.20
66887;BME280;67239;51.680;5.976;2023-07-20T08:00:00;101430.28;;;18.61;76.52
66887;BME280;67239;51.680;5.976;2023-07-20T08:02:30;101435.34;;;18.50;77.58
66887;BME280;67239;51.680;5.976;2023-07-20T08:04:57;101434.75;;;18.45;78.55
66887;BME280;67239;51.680;5.976;2023-07-20T08:07:25;101438.63;;;18.39;78.38
66887;BME280;67239;51.680;5.976;2023-07-20T08:09:52;101433.84;;;18.28;77.40
66887;BME280;67239;51.680;5.976;2023-07-20T08:12:19;101440.59;;;18.18;77.42
66887;BME280;67239;51.680;5.976;2023-07-20T08:14:47;101442.03;;;18.08;77.45
66887;BME280;67239;51.680;5.976;2023-07-20T08:17:14;101439.69;;;18.02;78.74
66887;BME280;67239;51.680;5.976;2023-07-20T08:19:42;101448.53;;;18.02;79.23
66887;BME280;67239;51.680;5.976;2023-07-20T08:22:10;101448.53;;;18.02;79.37
66887;BME280;67239;51.680;5.976;2023-07-20T08:24:39;101453.03;;;18.02;79.57
66887;BME280;67239;51.680;5.976;2023-07-20T08:27:07;101452.25;;;17.99;79.49
66887;BME280;67239;51.680;5.976;2023-07-20T08:29:35;101452.22;;;18.17;80.04
66887;BME280;67239;51.680;5.976;2023-07-20T08:32:05;101449.81;;;18.46;80.56
66887;BME280;67239;51.680;5.976;2023-07-20T08:34:33;101451.75;;;18.76;79.38
66887;BME280;67239;51.680;5.976;2023-07-20T08:37:00;101448.69;;;19.00;74.16
66887;BME280;67239;51.680;5.976;2023-07-20T08:39:27;101450.91;;;19.23;75.34
66887;BME280;67239;51.680;5.976;2023-07-20T08:41:55;101452.75;;;19.53;73.96
66887;BME280;67239;51.680;5.976;2023-07-20T08:44:24;101445.00;;;19.79;72.08
66887;BME280;67239;51.680;5.976;2023-07-20T08:46:52;101446.84;;;20.09;69.45
66887;BME280;67239;51.680;5.976;2023-07-20T08:49:20;101448.94;;;20.33;68.38
66887;BME280;67239;51.680;5.976;2023-07-20T08:51:48;101441.56;;;20.51;66.67
66887;BME280;67239;51.680;5.976;2023-07-20T08:54:16;101441.03;;;20.75;64.65
66887;BME280;67239;51.680;5.976;2023-07-20T08:56:45;101443.84;;;20.86;64.92
66887;BME280;67239;51.680;5.976;2023-07-20T08:59:16;101446.03;;;20.94;67.42
66887;BME280;67239;51.680;5.976;2023-07-20T09:01:45;101444.66;;;21.01;65.46
66887;BME280;67239;51.680;5.976;2023-07-20T09:04:13;101440.44;;;21.12;60.72
66887;BME280;67239;51.680;5.976;2023-07-20T09:06:40;101435.84;;;21.14;60.52
66887;BME280;67239;51.680;5.976;2023-07-20T09:09:11;101426.78;;;21.29;63.66
66887;BME280;67239;51.680;5.976;2023-07-20T09:11:40;101433.16;;;21.54;63.82
66887;BME280;67239;51.680;5.976;2023-07-20T09:14:09;101430.16;;;21.73;61.86
66887;BME280;67239;51.680;5.976;2023-07-20T09:16:52;101430.78;;;21.77;58.57
66887;BME280;67239;51.680;5.976;2023-07-20T09:19:22;101426.59;;;21.72;59.72
66887;BME280;67239;51.680;5.976;2023-07-20T09:21:50;101431.00;;;21.74;58.30
66887;BME280;67239;51.680;5.976;2023-07-20T09:24:19;101431.53;;;21.66;59.16
66887;BME280;67239;51.680;5.976;2023-07-20T09:26:48;101425.41;;;21.36;59.54
66887;BME280;67239;51.680;5.976;2023-07-20T09:29:19;101435.19;;;21.10;59.14
66887;BME280;67239;51.680;5.976;2023-07-20T09:32:00;101433.25;;;20.85;60.57
66887;BME280;67239;51.680;5.976;2023-07-20T09:34:32;101425.03;;;20.59;62.11
66887;BME280;67239;51.680;5.976;2023-07-20T09:37:02;101421.75;;;20.68;62.65
66887;BME280;67239;51.680;5.976;2023-07-20T09:39:30;101424.44;;;20.83;62.71
66887;BME280;67239;51.680;5.976;2023-07-20T09:42:01;101419.59;;;21.02;62.88
66887;BME280;67239;51.680;5.976;2023-07-20T09:44:32;101424.88;;;21.31;63.32
66887;BME280;67239;51.680;5.976;2023-07-20T09:47:03;101418.81;;;21.55;62.33
66887;BME280;67239;51.680;5.976;2023-07-20T09:49:32;101409.31;;;21.64;60.48
66887;BME280;67239;51.680;5.976;2023-07-20T09:52:19;101412.22;;;21.74;61.40
66887;BME280;67239;51.680;5.976;2023-07-20T09:54:51;101417.19;;;21.93;57.74
66887;BME280;67239;51.680;5.976;2023-07-20T09:57:18;101413.41;;;22.08;58.37
66887;BME280;67239;51.680;5.976;2023-07-20T09:59:48;101402.22;;;22.27;54.40
66887;BME280;67239;51.680;5.976;2023-07-20T10:02:21;101408.88;;;22.34;54.11
66887;BME280;67239;51.680;5.976;2023-07-20T10:04:53;101402.53;;;22.36;55.13
66887;BME280;67239;51.680;5.976;2023-07-20T10:07:24;101398.50;;;22.43;54.26
66887;BME280;67239;51.680;5.976;2023-07-20T10:09:56;101407.03;;;22.61;54.40
66887;BME280;67239;51.680;5.976;2023-07-20T10:12:27;101403.16;;;22.65;55.77
66887;BME280;67239;51.680;5.976;2023-07-20T10:17:57;101407.81;;;22.50;53.11
66887;BME280;67239;51.680;5.976;2023-07-20T10:20:33;101407.41;;;22.30;54.15
66887;BME280;67239;51.680;5.976;2023-07-20T10:23:04;101409.97;;;22.19;55.21
66887;BME280;67239;51.680;5.976;2023-07-20T10:25:32;101412.56;;;22.08;53.25
66887;BME280;67239;51.680;5.976;2023-07-20T10:28:05;101406.22;;;21.96;53.02
66887;BME280;67239;51.680;5.976;2023-07-20T10:30:35;101409.13;;;21.80;52.62
66887;BME280;67239;51.680;5.976;2023-07-20T10:33:04;101401.25;;;21.64;52.37
66887;BME280;67239;51.680;5.976;2023-07-20T10:35:52;101407.22;;;21.41;53.19
66887;BME280;67239;51.680;5.976;2023-07-20T10:38:19;101403.63;;;21.28;54.72
66887;BME280;67239;51.680;5.976;2023-07-20T10:40:56;101399.63;;;21.21;55.99
66887;BME280;67239;51.680;5.976;2023-07-20T10:43:24;101404.31;;;21.17;54.11
66887;BME280;67239;51.680;5.976;2023-07-20T10:45:52;101410.75;;;21.15;55.24
66887;BME280;67239;51.680;5.976;2023-07-20T10:48:21;101402.75;;;21.28;56.31
66887;BME280;67239;51.680;5.976;2023-07-20T10:51:21;101401.22;;;21.51;55.38
66887;BME280;67239;51.680;5.976;2023-07-20T10:53:49;101397.38;;;21.68;55.81
66887;BME280;67239;51.680;5.976;2023-07-20T10:56:20;101392.78;;;22.22;54.40
66887;BME280;67239;51.680;5.976;2023-07-20T10:58:55;101383.53;;;22.52;52.77
66887;BME280;67239;51.680;5.976;2023-07-20T11:01:29;101390.38;;;22.93;50.73
66887;BME280;67239;51.680;5.976;2023-07-20T11:03:59;101387.63;;;23.06;51.87
66887;BME280;67239;51.680;5.976;2023-07-20T11:09:13;101383.47;;;23.62;50.78
66887;BME280;67239;51.680;5.976;2023-07-20T11:11:43;101389.00;;;23.83;51.67
66887;BME280;67239;51.680;5.976;2023-07-20T11:16:50;101376.09;;;23.99;48.67
66887;BME280;67239;51.680;5.976;2023-07-20T11:19:22;101380.25;;;24.03;47.24
66887;BME280;67239;51.680;5.976;2023-07-20T11:21:57;101373.91;;;24.16;45.97
66887;BME280;67239;51.680;5.976;2023-07-20T11:24:30;101371.19;;;24.16;47.81
66887;BME280;67239;51.680;5.976;2023-07-20T11:26:59;101370.47;;;24.14;46.95
66887;BME280;67239;51.680;5.976;2023-07-20T11:29:28;101370.13;;;23.96;48.66
66887;BME280;67239;51.680;5.976;2023-07-20T11:32:00;101369.56;;;23.91;48.32
66887;BME280;67239;51.680;5.976;2023-07-20T11:34:32;101371.28;;;23.92;47.04
66887;BME280;67239;51.680;5.976;2023-07-20T11:37:01;101367.84;;;23.89;46.51
66887;BME280;67239;51.680;5.976;2023-07-20T11:39:32;101366.53;;;23.95;45.09
66887;BME280;67239;51.680;5.976;2023-07-20T11:41:59;101359.81;;;24.24;46.59
66887;BME280;67239;51.680;5.976;2023-07-20T11:44:27;101362.59;;;24.56;46.04
66887;BME280;67239;51.680;5.976;2023-07-20T11:49:40;101345.16;;;24.83;43.50
66887;BME280;67239;51.680;5.976;2023-07-20T11:52:14;101344.50;;;24.91;43.44
66887;BME280;67239;51.680;5.976;2023-07-20T11:54:45;101345.16;;;24.83;42.89
66887;BME280;67239;51.680;5.976;2023-07-20T11:57:22;101348.97;;;24.80;41.60
66887;BME280;67239;51.680;5.976;2023-07-20T11:59:57;101341.09;;;24.89;43.15
66887;BME280;67239;51.680;5.976;2023-07-20T12:02:28;101339.13;;;24.91;44.07
66887;BME280;67239;51.680;5.976;2023-07-20T12:04:58;101344.50;;;24.91;43.03
66887;BME280;67239;51.680;5.976;2023-07-20T12:07:27;101341.00;;;24.68;43.93
66887;BME280;67239;51.680;5.976;2023-07-20T12:12:43;101339.34;;;24.44;45.11
66887;BME280;67239;51.680;5.976;2023-07-20T12:15:20;101338.97;;;24.48;44.88
66887;BME280;67239;51.680;5.976;2023-07-20T12:17:51;101338.09;;;24.59;44.66
66887;BME280;67239;51.680;5.976;2023-07-20T12:20:39;101336.25;;;24.71;43.40
66887;BME280;67239;51.680;5.976;2023-07-20T12:23:11;101329.84;;;24.84;43.90
66887;BME280;67239;51.680;5.976;2023-07-20T12:25:46;101317.38;;;25.04;44.89
66887;BME280;67239;51.680;5.976;2023-07-20T12:28:16;101325.34;;;25.26;44.15
66887;BME280;67239;51.680;5.976;2023-07-20T12:30:46;101328.53;;;25.32;43.37
66887;BME280;67239;51.680;5.976;2023-07-20T12:33:18;101333.44;;;25.26;42.35
66887;BME280;67239;51.680;5.976;2023-07-20T12:35:45;101332.31;;;25.29;43.35
66887;BME280;67239;51.680;5.976;2023-07-20T12:38:13;101323.13;;;25.32;42.39
66887;BME280;67239;51.680;5.976;2023-07-20T12:40:40;101325.69;;;25.33;42.78
66887;BME280;67239;51.680;5.976;2023-07-20T12:43:08;101327.94;;;25.49;43.24
66887;BME280;67239;51.680;5.976;2023-07-20T12:45:35;101322.88;;;25.56;42.08
66887;BME280;67239;51.680;5.976;2023-07-20T12:48:02;101321.81;;;25.47;42.65
66887;BME280;67239;51.680;5.976;2023-07-20T12:50:30;101316.22;;;25.39;42.19
66887;BME280;67239;51.680;5.976;2023-07-20T12:52:57;101318.03;;;25.17;42.42
66887;BME280;67239;51.680;5.976;2023-07-20T12:55:24;101317.66;;;25.01;42.99
66887;BME280;67239;51.680;5.976;2023-07-20T12:57:51;101314.84;;;24.91;43.13
66887;BME280;67239;51.680;5.976;2023-07-20T13:00:19;101312.16;;;24.91;44.19
66887;BME280;67239;51.680;5.976;2023-07-20T13:02:47;101321.81;;;24.93;44.02
66887;BME280;67239;51.680;5.976;2023-07-20T13:05:15;101311.97;;;25.04;42.80
66887;BME280;67239;51.680;5.976;2023-07-20T13:07:43;101314.28;;;25.08;43.18
66887;BME280;67239;51.680;5.976;2023-07-20T13:10:13;101317.72;;;25.10;43.28
66887;BME280;67239;51.680;5.976;2023-07-20T13:12:40;101314.22;;;25.20;43.08
66887;BME280;67239;51.680;5.976;2023-07-20T13:15:10;101303.03;;;25.24;42.51
66887;BME280;67239;51.680;5.976;2023-07-20T13:17:39;101300.97;;;25.28;43.11
66887;BME280;67239;51.680;5.976;2023-07-20T13:20:08;101301.88;;;25.38;42.92
66887;BME280;67239;51.680;5.976;2023-07-20T13:22:38;101306.81;;;25.54;40.94